sensor_id;sensor_type;location;lat;lon;timestamp;pressure;altitude;pressure_sealevel;temperature;humidity
80585;BME280;70137;56.482;9.154;2023-11-21T00:02:01;101535.63;;;4.19;100.00
80585;BME280;70137;56.482;9.154;2023-11-21T00:04:26;101534.81;;;4.18;100.00
80585;BME280;70137;56.482;9.154;2023-11-21T00:06:53;101535.84;;;4.16;100.00
80585;BME280;70137;56.482;9.154;2023-11-21T00:09:19;101530.78;;;4.14;100.00
80585;BME280;70137;56.482;9.154;2023-11-21T00:11:45;101530.78;;;4.14;100.00
80585;BME280;70137;56.482;9.154;2023-11-21T00:14:11;101534.19;;;4.15;100.00
80585;BME280;70137;56.482;9.154;2023-11-21T00:16:36;101535.03;;;4.15;100.00
80585;BME280;70137;56.482;9.154;2023-11-21T00:19:02;101537.59;;;4.15;100.00
80585;BME280;70137;56.482;9.154;2023-11-21T00:21:27;101535.22;;;4.12;100.00
80585;BME280;70137;56.482;9.154;2023-11-21T00:23:52;101544.44;;;4.15;100.00
80585;BME280;70137;56.482;9.154;2023-11-21T00:26:18;101539.53;;;4.12;100.00
80585;BME280;70137;56.482;9.154;2023-11-21T00:28:43;101548.25;;;4.09;100.00
80585;BME280;70137;56.482;9.154;2023-11-21T00:31:08;101557.00;;;4.07;100.00
80585;BME280;70137;56.482;9.154;2023-11-21T00:33:34;101552.03;;;4.03;100.00
80585;BME280;70137;56.482;9.154;2023-11-21T00:35:59;101561.59;;;4.01;100.00
80585;BME280;70137;56.482;9.154;2023-11-21T00:38:26;101555.63;;;4.01;100.00
80585;BME280;70137;56.482;9.154;2023-11-21T00:40:52;101555.84;;;3.98;100.00
80585;BME280;70137;56.482;9.154;2023-11-21T00:43:21;101560.16;;;3.97;100.00
80585;BME280;70137;56.482;9.154;2023-11-21T00:45:46;101571.13;;;3.99;100.00
80585;BME280;70137;56.482;9.154;2023-11-21T00:48:14;101577.19;;;3.98;100.00
80585;BME280;70137;56.482;9.154;2023-11-21T00:50:40;101575.53;;;3.97;100.00
80585;BME280;70137;56.482;9.154;2023-11-21T00:53:05;101578.94;;;3.98;100.00
80585;BME280;70137;56.482;9.154;2023-11-21T00:55:32;101591.03;;;3.96;100.00
80585;BME280;70137;56.482;9.154;2023-11-21T00:57:58;101593.59;;;3.96;100.00
80585;BME280;70137;56.482;9.154;2023-11-21T01:00:23;101591.94;;;3.95;100.00
80585;BME280;70137;56.482;9.154;2023-11-21T01:02:49;101599.63;;;3.95;100.00
80585;BME280;70137;56.482;9.154;2023-11-21T01:05:14;101607.31;;;3.95;100.00
80585;BME280;70137;56.482;9.154;2023-11-21T01:07:40;101614.31;;;3.93;100.00
80585;BME280;70137;56.482;9.154;2023-11-21T01:10:05;101608.56;;;3.89;100.00
80585;BME280;70137;56.482;9.154;2023-11-21T01:12:34;101612.06;;;3.88;100.00
80585;BME280;70137;56.482;9.154;2023-11-21T01:14:59;101619.66;;;3.90;100.00
80585;BME280;70137;56.482;9.154;2023-11-21T01:17:25;101620.56;;;3.89;100.00
80585;BME280;70137;56.482;9.154;2023-11-21T01:19:51;101625.69;;;3.89;100.00
80585;BME280;70137;56.482;9.154;2023-11-21T01:22:16;101624.97;;;3.87;100.00
80585;BME280;70137;56.482;9.154;2023-11-21T01:24:43;101625.88;;;3.86;100.00
80585;BME280;70137;56.482;9.154;2023-11-21T01:27:08;101628.44;;;3.86;100.00
80585;BME280;70137;56.482;9.154;2023-11-21T01:29:34;101630.00;;;3.88;100.00
80585;BME280;70137;56.482;9.154;2023-11-21T01:32:02;101635.84;;;3.90;100.00
80585;BME280;70137;56.482;9.154;2023-11-21T01:34:27;101640.16;;;3.90;100.00
80585;BME280;70137;56.482;9.154;2023-11-21T01:36:53;101645.28;;;3.90;100.00
80585;BME280;70137;56.482;9.154;2023-11-21T01:39:18;101642.84;;;3.88;100.00
80585;BME280;70137;56.482;9.154;2023-11-21T01:41:49;101652.28;;;3.88;100.00
80585;BME280;70137;56.482;9.154;2023-11-21T01:44:14;101649.81;;;3.86;100.00
80585;BME280;70137;56.482;9.154;2023-11-21T01:46:42;101657.78;;;3.82;100.00
80585;BME280;70137;56.482;9.154;2023-11-21T01:49:07;101662.38;;;3.77;100.00
80585;BME280;70137;56.482;9.154;2023-11-21T01:51:35;101663.28;;;3.76;99.94
80585;BME280;70137;56.482;9.154;2023-11-21T01:54:03;101669.53;;;3.71;100.00
80585;BME280;70137;56.482;9.154;2023-11-21T01:56:30;101675.59;;;3.70;100.00
80585;BME280;70137;56.482;9.154;2023-11-21T01:58:57;101682.34;;;3.71;100.00
80585;BME280;70137;56.482;9.154;2023-11-21T02:01:22;101685.84;;;3.70;99.70
80585;BME280;70137;56.482;9.154;2023-11-21T02:03:47;101692.06;;;3.66;99.79
80585;BME280;70137;56.482;9.154;2023-11-21T02:06:13;101689.69;;;3.63;100.00
80585;BME280;70137;56.482;9.154;2023-11-21T02:08:38;101694.00;;;3.63;100.00
80585;BME280;70137;56.482;9.154;2023-11-21T02:11:05;101699.94;;;3.63;98.99
80585;BME280;70137;56.482;9.154;2023-11-21T02:13:31;101700.69;;;3.65;99.54
80585;BME280;70137;56.482;9.154;2023-11-21T02:15:58;101694.81;;;3.63;99.61
80585;BME280;70137;56.482;9.154;2023-11-21T02:18:23;101700.16;;;3.60;99.57
80585;BME280;70137;56.482;9.154;2023-11-21T02:20:48;101710.31;;;3.62;98.96
80585;BME280;70137;56.482;9.154;2023-11-21T02:23:14;101712.06;;;3.61;100.00
80585;BME280;70137;56.482;9.154;2023-11-21T02:25:39;101715.44;;;3.62;99.56
80585;BME280;70137;56.482;9.154;2023-11-21T02:28:05;101719.75;;;3.61;98.78
80585;BME280;70137;56.482;9.154;2023-11-21T02:30:32;101709.50;;;3.61;99.33
80585;BME280;70137;56.482;9.154;2023-11-21T02:32:57;101723.94;;;3.62;99.61
80585;BME280;70137;56.482;9.154;2023-11-21T02:35:23;101718.91;;;3.61;99.30
80585;BME280;70137;56.482;9.154;2023-11-21T02:37:51;101715.63;;;3.59;99.11
80585;BME280;70137;56.482;9.154;2023-11-21T02:40:16;101716.63;;;3.56;99.22
80585;BME280;70137;56.482;9.154;2023-11-21T02:42:50;101721.75;;;3.56;99.18
80585;BME280;70137;56.482;9.154;2023-11-21T02:45:16;101728.72;;;3.54;99.25
80585;BME280;70137;56.482;9.154;2023-11-21T02:47:43;101721.94;;;3.53;98.92
80585;BME280;70137;56.482;9.154;2023-11-21T02:50:08;101727.16;;;3.52;98.31
80585;BME280;70137;56.482;9.154;2023-11-21T02:52:35;101727.16;;;3.52;98.99
80585;BME280;70137;56.482;9.154;2023-11-21T02:55:01;101736.81;;;3.48;98.46
80585;BME280;70137;56.482;9.154;2023-11-21T02:57:27;101732.66;;;3.45;99.21
80585;BME280;70137;56.482;9.154;2023-11-21T02:59:52;101733.88;;;3.40;98.13
80585;BME280;70137;56.482;9.154;2023-11-21T03:02:18;101740.84;;;3.38;98.45
80585;BME280;70137;56.482;9.154;2023-11-21T03:04:43;101744.28;;;3.37;97.96
80585;BME280;70137;56.482;9.154;2023-11-21T03:07:09;101741.72;;;3.37;97.93
80585;BME280;70137;56.482;9.154;2023-11-21T03:09:35;101749.41;;;3.37;98.20
80585;BME280;70137;56.482;9.154;2023-11-21T03:12:00;101747.75;;;3.36;97.98
80585;BME280;70137;56.482;9.154;2023-11-21T03:14:26;101746.94;;;3.35;98.07
80585;BME280;70137;56.482;9.154;2023-11-21T03:16:51;101749.59;;;3.34;98.56
80585;BME280;70137;56.482;9.154;2023-11-21T03:19:17;101759.84;;;3.34;98.15
80585;BME280;70137;56.482;9.154;2023-11-21T03:21:42;101754.09;;;3.30;97.93
80585;BME280;70137;56.482;9.154;2023-11-21T03:24:07;101762.03;;;3.26;97.55
80585;BME280;70137;56.482;9.154;2023-11-21T03:26:33;101763.88;;;3.24;97.92
80585;BME280;70137;56.482;9.154;2023-11-21T03:28:59;101765.53;;;3.25;97.12
80585;BME280;70137;56.482;9.154;2023-11-21T03:31:24;101764.69;;;3.24;98.05
80585;BME280;70137;56.482;9.154;2023-11-21T03:33:49;101774.84;;;3.26;97.41
80585;BME280;70137;56.482;9.154;2023-11-21T03:36:15;101775.78;;;3.25;97.93
80585;BME280;70137;56.482;9.154;2023-11-21T03:38:40;101779.25;;;3.24;96.54
80585;BME280;70137;56.482;9.154;2023-11-21T03:41:07;101785.28;;;3.23;96.61
80585;BME280;70137;56.482;9.154;2023-11-21T03:43:35;101784.56;;;3.21;97.12
80585;BME280;70137;56.482;9.154;2023-11-21T03:46:00;101796.66;;;3.19;97.47
80585;BME280;70137;56.482;9.154;2023-11-21T03:48:26;101805.22;;;3.17;97.46
80585;BME280;70137;56.482;9.154;2023-11-21T03:50:51;101809.53;;;3.17;97.99
80585;BME280;70137;56.482;9.154;2023-11-21T03:53:16;101812.03;;;3.19;97.54
80585;BME280;70137;56.482;9.154;2023-11-21T03:55:42;101808.81;;;3.15;96.73
80585;BME280;70137;56.482;9.154;2023-11-21T03:58:07;101810.53;;;3.14;96.73
80585;BME280;70137;56.482;9.154;2023-11-21T04:00:32;101809.72;;;3.14;96.81
80585;BME280;70137;56.482;9.154;2023-11-21T04:02:58;101803.94;;;3.10;96.81
80585;BME280;70137;56.482;9.154;2023-11-21T04:05:23;101814.00;;;3.13;97.37
80585;BME280;70137;56.482;9.154;2023-11-21T04:07:50;101821.50;;;3.16;97.90
80585;BME280;70137;56.482;9.154;2023-11-21T04:10:16;101818.13;;;3.16;96.98
80585;BME280;70137;56.482;9.154;2023-11-21T04:12:41;101818.94;;;3.16;97.10
80585;BME280;70137;56.482;9.154;2023-11-21T04:15:07;101827.56;;;3.15;97.13
80585;BME280;70137;56.482;9.154;2023-11-21T04:17:34;101832.69;;;3.15;97.74
80585;BME280;70137;56.482;9.154;2023-11-21T04:19:59;101825.00;;;3.15;96.83
80585;BME280;70137;56.482;9.154;2023-11-21T04:22:25;101832.69;;;3.15;96.94
80585;BME280;70137;56.482;9.154;2023-11-21T04:24:50;101829.38;;;3.13;97.27
80585;BME280;70137;56.482;9.154;2023-11-21T04:27:15;101838.00;;;3.12;97.22
80585;BME280;70137;56.482;9.154;2023-11-21T04:29:43;101833.06;;;3.09;97.17
80585;BME280;70137;56.482;9.154;2023-11-21T04:32:09;101839.06;;;3.08;97.16
80585;BME280;70137;56.482;9.154;2023-11-21T04:34:34;101843.44;;;3.06;97.40
80585;BME280;70137;56.482;9.154;2023-11-21T04:37:00;101850.97;;;3.09;97.74
80585;BME280;70137;56.482;9.154;2023-11-21T04:39:26;101856.09;;;3.09;97.96
80585;BME280;70137;56.482;9.154;2023-11-21T04:41:51;101866.34;;;3.09;97.54
80585;BME280;70137;56.482;9.154;2023-11-21T04:44:17;101874.88;;;3.10;97.61
80585;BME280;70137;56.482;9.154;2023-11-21T04:46:42;101870.72;;;3.07;98.01
80585;BME280;70137;56.482;9.154;2023-11-21T04:49:07;101870.06;;;3.04;96.87
80585;BME280;70137;56.482;9.154;2023-11-21T04:51:33;101876.03;;;3.04;96.73
80585;BME280;70137;56.482;9.154;2023-11-21T04:53:58;101873.47;;;3.04;96.96
80585;BME280;70137;56.482;9.154;2023-11-21T04:56:24;101879.41;;;3.05;96.65
80585;BME280;70137;56.482;9.154;2023-11-21T04:58:49;101876.03;;;3.04;97.44
80585;BME280;70137;56.482;9.154;2023-11-21T05:01:15;101869.34;;;3.02;96.49
80585;BME280;70137;56.482;9.154;2023-11-21T05:03:41;101881.47;;;2.98;97.28
80585;BME280;70137;56.482;9.154;2023-11-21T05:06:06;101876.34;;;2.98;97.11
80585;BME280;70137;56.482;9.154;2023-11-21T05:08:34;101884.81;;;3.00;96.97
80585;BME280;70137;56.482;9.154;2023-11-21T05:10:59;101892.41;;;3.02;96.34
80585;BME280;70137;56.482;9.154;2023-11-21T05:13:25;101906.03;;;3.02;96.85
80585;BME280;70137;56.482;9.154;2023-11-21T05:15:56;101899.25;;;3.01;97.01
80585;BME280;70137;56.482;9.154;2023-11-21T05:18:24;101906.03;;;3.02;97.07
80585;BME280;70137;56.482;9.154;2023-11-21T05:20:52;101909.50;;;3.01;96.68
80585;BME280;70137;56.482;9.154;2023-11-21T05:23:18;101913.81;;;3.01;96.42
80585;BME280;70137;56.482;9.154;2023-11-21T05:25:44;101918.00;;;3.02;97.29
80585;BME280;70137;56.482;9.154;2023-11-21T05:28:09;101913.72;;;3.02;96.60
80585;BME280;70137;56.482;9.154;2023-11-21T05:30:34;101906.84;;;3.03;97.04
80585;BME280;70137;56.482;9.154;2023-11-21T05:33:00;101912.81;;;3.03;97.48
80585;BME280;70137;56.482;9.154;2023-11-21T05:35:25;101912.81;;;3.03;97.29
80585;BME280;70137;56.482;9.154;2023-11-21T05:37:51;101912.81;;;3.03;96.88
80585;BME280;70137;56.482;9.154;2023-11-21T05:40:17;101918.66;;;3.05;97.56
80585;BME280;70137;56.482;9.154;2023-11-21T05:42:43;101925.44;;;3.06;97.21
80585;BME280;70137;56.482;9.154;2023-11-21T05:45:09;101925.44;;;3.06;96.95
80585;BME280;70137;56.482;9.154;2023-11-21T05:47:45;101925.44;;;3.06;96.63
80585;BME280;70137;56.482;9.154;2023-11-21T05:50:13;101929.72;;;3.06;96.50
80585;BME280;70137;56.482;9.154;2023-11-21T05:52:43;101929.72;;;3.06;96.68
80585;BME280;70137;56.482;9.154;2023-11-21T05:55:09;101934.03;;;3.05;96.56
80585;BME280;70137;56.482;9.154;2023-11-21T05:57:35;101935.84;;;3.03;97.10
80585;BME280;70137;56.482;9.154;2023-11-21T06:00:11;101937.69;;;3.01;96.20
80585;BME280;70137;56.482;9.154;2023-11-21T06:02:50;101941.31;;;2.97;97.19
80585;BME280;70137;56.482;9.154;2023-11-21T06:05:17;101947.44;;;2.95;96.87
80585;BME280;70137;56.482;9.154;2023-11-21T06:07:44;101959.41;;;2.94;96.19
80585;BME280;70137;56.482;9.154;2023-11-21T06:10:11;101956.94;;;2.93;96.81
80585;BME280;70137;56.482;9.154;2023-11-21T06:12:38;101962.88;;;2.93;96.66
80585;BME280;70137;56.482;9.154;2023-11-21T06:15:05;101957.84;;;2.92;96.43
80585;BME280;70137;56.482;9.154;2023-11-21T06:17:36;101972.41;;;2.91;95.90
80585;BME280;70137;56.482;9.154;2023-11-21T06:20:06;101973.31;;;2.90;97.21
80585;BME280;70137;56.482;9.154;2023-11-21T06:22:38;101982.78;;;2.88;96.07
80585;BME280;70137;56.482;9.154;2023-11-21T06:25:04;101993.22;;;2.85;96.12
80585;BME280;70137;56.482;9.154;2023-11-21T06:27:32;101999.97;;;2.86;96.72
80585;BME280;70137;56.482;9.154;2023-11-21T06:29:57;101998.25;;;2.86;96.00
80585;BME280;70137;56.482;9.154;2023-11-21T06:32:23;102000.81;;;2.86;96.89
80585;BME280;70137;56.482;9.154;2023-11-21T06:34:48;102006.84;;;2.85;96.45
80585;BME280;70137;56.482;9.154;2023-11-21T06:37:15;102008.56;;;2.85;96.55
80585;BME280;70137;56.482;9.154;2023-11-21T06:39:40;102020.63;;;2.83;96.63
80585;BME280;70137;56.482;9.154;2023-11-21T06:42:05;102023.94;;;2.85;96.49
80585;BME280;70137;56.482;9.154;2023-11-21T06:44:31;102032.53;;;2.84;96.64
80585;BME280;70137;56.482;9.154;2023-11-21T06:46:58;102037.66;;;2.84;96.67
80585;BME280;70137;56.482;9.154;2023-11-21T06:49:24;102037.66;;;2.84;97.42
80585;BME280;70137;56.482;9.154;2023-11-21T06:51:49;102037.75;;;2.82;97.58
80585;BME280;70137;56.482;9.154;2023-11-21T06:54:15;102040.13;;;2.85;96.90
80585;BME280;70137;56.482;9.154;2023-11-21T06:56:40;102049.56;;;2.85;97.52
80585;BME280;70137;56.482;9.154;2023-11-21T06:59:06;102051.13;;;2.87;97.58
80585;BME280;70137;56.482;9.154;2023-11-21T07:01:31;102043.44;;;2.87;97.01
80585;BME280;70137;56.482;9.154;2023-11-21T07:04:04;102060.41;;;2.90;97.41
80585;BME280;70137;56.482;9.154;2023-11-21T07:06:30;102056.94;;;2.91;97.82
80585;BME280;70137;56.482;9.154;2023-11-21T07:08:55;102056.00;;;2.92;98.08
80585;BME280;70137;56.482;9.154;2023-11-21T07:11:20;102057.66;;;2.93;98.84
80585;BME280;70137;56.482;9.154;2023-11-21T07:13:46;102060.97;;;2.95;98.59
80585;BME280;70137;56.482;9.154;2023-11-21T07:16:11;102055.84;;;2.95;98.50
80585;BME280;70137;56.482;9.154;2023-11-21T07:18:37;102061.69;;;2.97;98.83
80585;BME280;70137;56.482;9.154;2023-11-21T07:21:03;102069.38;;;2.97;98.46
80585;BME280;70137;56.482;9.154;2023-11-21T07:23:28;102070.16;;;2.99;98.56
80585;BME280;70137;56.482;9.154;2023-11-21T07:25:54;102076.84;;;3.02;98.91
80585;BME280;70137;56.482;9.154;2023-11-21T07:28:19;102079.31;;;3.03;98.87
80585;BME280;70137;56.482;9.154;2023-11-21T07:30:44;102090.47;;;3.02;98.07
80585;BME280;70137;56.482;9.154;2023-11-21T07:33:10;102095.59;;;3.02;98.63
80585;BME280;70137;56.482;9.154;2023-11-21T07:35:35;102098.16;;;3.02;98.81
80585;BME280;70137;56.482;9.154;2023-11-21T07:38:01;102104.94;;;3.03;98.80
80585;BME280;70137;56.482;9.154;2023-11-21T07:40:26;102098.91;;;3.04;98.49
80585;BME280;70137;56.482;9.154;2023-11-21T07:42:52;102108.25;;;3.05;98.76
80585;BME280;70137;56.482;9.154;2023-11-21T07:45:18;102107.25;;;3.08;98.79
80585;BME280;70137;56.482;9.154;2023-11-21T07:47:43;102109.75;;;3.09;98.49
80585;BME280;70137;56.482;9.154;2023-11-21T07:50:09;102113.88;;;3.12;99.19
80585;BME280;70137;56.482;9.154;2023-11-21T07:52:34;102115.63;;;3.11;98.36
80585;BME280;70137;56.482;9.154;2023-11-21T07:54:59;102118.91;;;3.13;98.71
80585;BME280;70137;56.482;9.154;2023-11-21T07:57:25;102123.94;;;3.15;99.11
80585;BME280;70137;56.482;9.154;2023-11-21T07:59:51;102122.22;;;3.15;98.89
80585;BME280;70137;56.482;9.154;2023-11-21T08:02:18;102134.13;;;3.16;98.89
80585;BME280;70137;56.482;9.154;2023-11-21T08:04:44;102141.81;;;3.16;98.89
80585;BME280;70137;56.482;9.154;2023-11-21T08:07:09;102143.63;;;3.14;98.85
80585;BME280;70137;56.482;9.154;2023-11-21T08:09:36;102141.06;;;3.14;98.83
80585;BME280;70137;56.482;9.154;2023-11-21T08:12:01;102147.09;;;3.13;99.43
80585;BME280;70137;56.482;9.154;2023-11-21T08:14:27;102147.28;;;3.10;98.78
80585;BME280;70137;56.482;9.154;2023-11-21T08:16:53;102149.84;;;3.10;99.33
80585;BME280;70137;56.482;9.154;2023-11-21T08:19:22;102142.22;;;3.09;98.79
80585;BME280;70137;56.482;9.154;2023-11-21T08:21:50;102146.44;;;3.10;99.16
80585;BME280;70137;56.482;9.154;2023-11-21T08:24:15;102143.94;;;3.08;99.00
80585;BME280;70137;56.482;9.154;2023-11-21T08:26:42;102143.78;;;3.11;99.36
80585;BME280;70137;56.482;9.154;2023-11-21T08:29:08;102152.22;;;3.13;99.79
80585;BME280;70137;56.482;9.154;2023-11-21T08:31:33;102159.00;;;3.14;99.31
80585;BME280;70137;56.482;9.154;2023-11-21T08:33:59;102167.28;;;3.20;99.87
80585;BME280;70137;56.482;9.154;2023-11-21T08:36:28;102168.78;;;3.24;100.00
80585;BME280;70137;56.482;9.154;2023-11-21T08:38:53;102172.75;;;3.29;99.59
80585;BME280;70137;56.482;9.154;2023-11-21T08:41:18;102176.81;;;3.33;99.93
80585;BME280;70137;56.482;9.154;2023-11-21T08:43:47;102176.56;;;3.38;100.00
80585;BME280;70137;56.482;9.154;2023-11-21T08:46:13;102178.06;;;3.42;99.63
80585;BME280;70137;56.482;9.154;2023-11-21T08:48:40;102180.44;;;3.45;99.55
80585;BME280;70137;56.482;9.154;2023-11-21T08:51:06;102184.53;;;3.49;100.00
80585;BME280;70137;56.482;9.154;2023-11-21T08:53:32;102183.53;;;3.52;100.00
80585;BME280;70137;56.482;9.154;2023-11-21T08:55:58;102192.78;;;3.54;100.00
80585;BME280;70137;56.482;9.154;2023-11-21T08:58:23;102188.47;;;3.55;100.00
80585;BME280;70137;56.482;9.154;2023-11-21T09:00:49;102199.56;;;3.55;100.00
80585;BME280;70137;56.482;9.154;2023-11-21T09:03:14;102202.03;;;3.57;100.00
80585;BME280;70137;56.482;9.154;2023-11-21T09:05:39;102208.84;;;3.58;100.00
80585;BME280;70137;56.482;9.154;2023-11-21T09:08:05;102208.84;;;3.58;100.00
80585;BME280;70137;56.482;9.154;2023-11-21T09:10:32;102212.97;;;3.60;100.00
80585;BME280;70137;56.482;9.154;2023-11-21T09:12:58;102211.16;;;3.62;100.00
80585;BME280;70137;56.482;9.154;2023-11-21T09:15:24;102205.84;;;3.65;100.00
80585;BME280;70137;56.482;9.154;2023-11-21T09:17:50;102217.69;;;3.68;100.00
80585;BME280;70137;56.482;9.154;2023-11-21T09:20:15;102211.56;;;3.70;100.00
80585;BME280;70137;56.482;9.154;2023-11-21T09:22:41;102208.81;;;3.73;100.00
80585;BME280;70137;56.482;9.154;2023-11-21T09:25:07;102222.38;;;3.76;99.72
80585;BME280;70137;56.482;9.154;2023-11-21T09:27:34;102227.38;;;3.79;100.00
80585;BME280;70137;56.482;9.154;2023-11-21T09:30:01;102223.91;;;3.80;99.95
80585;BME280;70137;56.482;9.154;2023-11-21T09:32:26;102229.84;;;3.80;99.90
80585;BME280;70137;56.482;9.154;2023-11-21T09:34:51;102235.63;;;3.84;100.00
80585;BME280;70137;56.482;9.154;2023-11-21T09:37:19;102244.94;;;3.86;100.00
80585;BME280;70137;56.482;9.154;2023-11-21T09:39:44;102252.44;;;3.89;100.00
80585;BME280;70137;56.482;9.154;2023-11-21T09:42:12;102258.22;;;3.93;100.00
80585;BME280;70137;56.482;9.154;2023-11-21T09:47:26;102270.06;;;3.95;99.66
80585;BME280;70137;56.482;9.154;2023-11-21T09:49:54;102276.03;;;3.96;100.00
80585;BME280;70137;56.482;9.154;2023-11-21T09:52:25;102281.22;;;3.94;100.00
80585;BME280;70137;56.482;9.154;2023-11-21T09:54:52;102269.41;;;3.92;100.00
80585;BME280;70137;56.482;9.154;2023-11-21T09:57:24;102280.50;;;3.92;99.84
80585;BME280;70137;56.482;9.154;2023-11-21T09:59:54;102276.94;;;3.95;100.00
80585;BME280;70137;56.482;9.154;2023-11-21T10:02:25;102284.47;;;3.98;100.00
80585;BME280;70137;56.482;9.154;2023-11-21T10:04:52;102281.75;;;4.01;100.00
80585;BME280;70137;56.482;9.154;2023-11-21T10:07:19;102290.91;;;4.05;100.00
80585;BME280;70137;56.482;9.154;2023-11-21T10:09:46;102283.91;;;4.09;100.00
80585;BME280;70137;56.482;9.154;2023-11-21T10:12:14;102285.47;;;4.11;100.00
80585;BME280;70137;56.482;9.154;2023-11-21T10:14:41;102286.28;;;4.12;100.00
80585;BME280;70137;56.482;9.154;2023-11-21T10:17:08;102283.63;;;4.13;100.00
80585;BME280;70137;56.482;9.154;2023-11-21T10:19:38;102279.41;;;4.12;100.00
80585;BME280;70137;56.482;9.154;2023-11-21T10:22:04;102287.94;;;4.13;100.00
80585;BME280;70137;56.482;9.154;2023-11-21T10:24:29;102281.16;;;4.12;99.58
80585;BME280;70137;56.482;9.154;2023-11-21T10:26:54;102289.13;;;4.07;99.56
80585;BME280;70137;56.482;9.154;2023-11-21T10:29:20;102287.59;;;4.03;100.00
80585;BME280;70137;56.482;9.154;2023-11-21T10:31:49;102282.66;;;4.00;99.29
80585;BME280;70137;56.482;9.154;2023-11-21T10:34:18;102282.66;;;4.00;99.67
80585;BME280;70137;56.482;9.154;2023-11-21T10:36:44;102281.75;;;4.01;99.30
80585;BME280;70137;56.482;9.154;2023-11-21T10:39:14;102291.91;;;4.02;99.16
80585;BME280;70137;56.482;9.154;2023-11-21T10:41:44;102300.13;;;4.09;99.83
80585;BME280;70137;56.482;9.154;2023-11-21T10:44:10;102297.22;;;4.15;99.98
80585;BME280;70137;56.482;9.154;2023-11-21T10:46:36;102297.78;;;4.20;99.47
80585;BME280;70137;56.482;9.154;2023-11-21T10:49:01;102299.28;;;4.24;99.71
80585;BME280;70137;56.482;9.154;2023-11-21T10:51:27;102306.81;;;4.27;99.89
80585;BME280;70137;56.482;9.154;2023-11-21T10:53:53;102301.50;;;4.30;100.00
80585;BME280;70137;56.482;9.154;2023-11-21T10:56:20;102304.81;;;4.32;99.76
80585;BME280;70137;56.482;9.154;2023-11-21T10:58:49;102308.16;;;4.35;99.87
80585;BME280;70137;56.482;9.154;2023-11-21T11:01:17;102301.19;;;4.37;99.89
80585;BME280;70137;56.482;9.154;2023-11-21T11:03:44;102304.50;;;4.39;99.49
80585;BME280;70137;56.482;9.154;2023-11-21T11:06:10;102313.94;;;4.38;99.96
80585;BME280;70137;56.482;9.154;2023-11-21T11:08:38;102319.91;;;4.39;99.23
80585;BME280;70137;56.482;9.154;2023-11-21T11:11:05;102323.19;;;4.41;99.35
80585;BME280;70137;56.482;9.154;2023-11-21T11:13:31;102322.28;;;4.42;99.44
80585;BME280;70137;56.482;9.154;2023-11-21T11:16:01;102312.00;;;4.42;99.35
80585;BME280;70137;56.482;9.154;2023-11-21T11:18:32;102328.16;;;4.44;99.41
80585;BME280;70137;56.482;9.154;2023-11-21T11:24:39;102326.34;;;4.46;99.90
80585;BME280;70137;56.482;9.154;2023-11-21T11:30:19;102325.75;;;4.56;99.04
80585;BME280;70137;56.482;9.154;2023-11-21T11:32:53;102330.63;;;4.61;99.13
80585;BME280;70137;56.482;9.154;2023-11-21T11:38:15;102340.91;;;4.61;99.48
80585;BME280;70137;56.482;9.154;2023-11-21T11:40:44;102341.56;;;4.65;98.84
80585;BME280;70137;56.482;9.154;2023-11-21T11:43:10;102343.06;;;4.69;99.53
80585;BME280;70137;56.482;9.154;2023-11-21T11:45:37;102335.44;;;4.67;99.51
80585;BME280;70137;56.482;9.154;2023-11-21T11:48:07;102339.66;;;4.68;98.41
80585;BME280;70137;56.482;9.154;2023-11-21T11:50:33;102339.66;;;4.68;98.73
80585;BME280;70137;56.482;9.154;2023-11-21T11:53:17;102345.53;;;4.70;98.98
80585;BME280;70137;56.482;9.154;2023-11-21T11:55:45;102353.91;;;4.74;98.63
80585;BME280;70137;56.482;9.154;2023-11-21T11:58:10;102356.38;;;4.75;98.77
80585;BME280;70137;56.482;9.154;2023-11-21T12:00:36;102354.66;;;4.76;99.09
80585;BME280;70137;56.482;9.154;2023-11-21T12:03:07;102358.97;;;4.75;98.92
80585;BME280;70137;56.482;9.154;2023-11-21T12:05:34;102358.13;;;4.75;98.70
80585;BME280;70137;56.482;9.154;2023-11-21T12:08:11;102368.41;;;4.75;98.14
80585;BME280;70137;56.482;9.154;2023-11-21T12:10:37;102377.69;;;4.77;98.88
80585;BME280;70137;56.482;9.154;2023-11-21T12:13:10;102370.78;;;4.78;98.56
80585;BME280;70137;56.482;9.154;2023-11-21T12:15:37;102373.53;;;4.75;97.96
80585;BME280;70137;56.482;9.154;2023-11-21T12:18:03;102375.34;;;4.73;98.17
80585;BME280;70137;56.482;9.154;2023-11-21T12:20:32;102379.59;;;4.74;98.06
80585;BME280;70137;56.482;9.154;2023-11-21T12:23:03;102376.34;;;4.70;97.70
80585;BME280;70137;56.482;9.154;2023-11-21T12:25:30;102371.22;;;4.70;98.24
80585;BME280;70137;56.482;9.154;2023-11-21T12:28:00;102378.84;;;4.72;98.23
80585;BME280;70137;56.482;9.154;2023-11-21T12:30:27;102386.47;;;4.73;98.09
80585;BME280;70137;56.482;9.154;2023-11-21T12:32:57;102391.34;;;4.78;98.27
80585;BME280;70137;56.482;9.154;2023-11-21T12:35:30;102395.66;;;4.77;97.53
80585;BME280;70137;56.482;9.154;2023-11-21T12:37:59;102399.88;;;4.78;97.80
80585;BME280;70137;56.482;9.154;2023-11-21T12:40:24;102394.75;;;4.78;98.13
80585;BME280;70137;56.482;9.154;2023-11-21T12:42:55;102399.06;;;4.78;97.96
80585;BME280;70137;56.482;9.154;2023-11-21T12:47:52;102402.38;;;4.80;97.95
80585;BME280;70137;56.482;9.154;2023-11-21T12:50:22;102394.41;;;4.84;98.26
80585;BME280;70137;56.482;9.154;2023-11-21T12:52:50;102404.50;;;4.87;97.93
80585;BME280;70137;56.482;9.154;2023-11-21T12:55:21;102408.56;;;4.92;97.70
80585;BME280;70137;56.482;9.154;2023-11-21T12:57:51;102409.16;;;4.97;97.85
80585;BME280;70137;56.482;9.154;2023-11-21T13:00:33;102405.47;;;5.01;97.75
80585;BME280;70137;56.482;9.154;2023-11-21T13:03:02;102402.91;;;5.01;97.48
80585;BME280;70137;56.482;9.154;2023-11-21T13:07:56;102424.88;;;5.06;98.25
80585;BME280;70137;56.482;9.154;2023-11-21T13:10:26;102416.16;;;5.09;97.75
80585;BME280;70137;56.482;9.154;2023-11-21T13:13:00;102418.81;;;5.07;97.71